sensor_id;sensor_type;location;lat;lon;timestamp;P1;durP1;ratioP1;P2;durP2;ratioP2
33074;SDS011;19433;51.292;6.868;2022-11-25T01:38:22;8.47;;;3.13;;
33074;SDS011;19433;51.292;6.868;2022-11-25T01:40:47;10.27;;;3.67;;
33074;SDS011;19433;51.292;6.868;2022-11-25T01:52:58;6.67;;;2.50;;
33074;SDS011;19433;51.292;6.868;2022-11-25T01:55:28;7.17;;;3.00;;
33074;SDS011;19433;51.292;6.868;2022-11-25T01:57:57;5.23;;;2.60;;
33074;SDS011;19433;51.292;6.868;2022-11-25T03:19:16;6.60;;;2.60;;
33074;SDS011;19433;51.292;6.868;2022-11-25T03:24:44;7.40;;;2.40;;
33074;SDS011;19433;51.292;6.868;2022-11-25T03:27:09;5.40;;;2.63;;
33074;SDS011;19433;51.292;6.868;2022-11-25T03:29:37;3.30;;;2.30;;
33074;SDS011;19433;51.292;6.868;2022-11-25T03:38:36;6.00;;;2.40;;
33074;SDS011;19433;51.292;6.868;2022-11-25T03:41:01;7.13;;;2.70;;
33074;SDS011;19433;51.292;6.868;2022-11-25T03:43:26;4.57;;;2.20;;
33074;SDS011;19433;51.292;6.868;2022-11-25T03:45:54;5.43;;;2.60;;
33074;SDS011;19433;51.292;6.868;2022-11-25T03:57:51;8.60;;;2.37;;
33074;SDS011;19433;51.292;6.868;2022-11-25T04:10:36;6.10;;;2.63;;
33074;SDS011;19433;51.292;6.868;2022-11-25T04:16:24;9.20;;;3.60;;
33074;SDS011;19433;51.292;6.868;2022-11-25T04:18:50;8.53;;;3.10;;
33074;SDS011;19433;51.292;6.868;2022-11-25T04:24:05;7.27;;;2.80;;
33074;SDS011;19433;51.292;6.868;2022-11-25T04:26:30;10.83;;;3.17;;
33074;SDS011;19433;51.292;6.868;2022-11-25T04:28:56;6.53;;;3.40;;
33074;SDS011;19433;51.292;6.868;2022-11-25T04:31:21;8.97;;;3.87;;
33074;SDS011;19433;51.292;6.868;2022-11-25T04:33:48;8.00;;;2.90;;
33074;SDS011;19433;51.292;6.868;2022-11-25T04:36:14;6.00;;;4.00;;
33074;SDS011;19433;51.292;6.868;2022-11-25T04:38:39;6.60;;;2.50;;
33074;SDS011;19433;51.292;6.868;2022-11-25T04:41:04;8.20;;;3.20;;
33074;SDS011;19433;51.292;6.868;2022-11-25T04:43:30;12.47;;;3.13;;
33074;SDS011;19433;51.292;6.868;2022-11-25T04:45:56;8.70;;;3.37;;
33074;SDS011;19433;51.292;6.868;2022-11-25T04:48:21;13.33;;;3.27;;
33074;SDS011;19433;51.292;6.868;2022-11-25T04:50:47;7.83;;;2.90;;
33074;SDS011;19433;51.292;6.868;2022-11-25T04:53:12;12.43;;;3.70;;
33074;SDS011;19433;51.292;6.868;2022-11-25T04:55:38;9.00;;;3.20;;
33074;SDS011;19433;51.292;6.868;2022-11-25T04:58:03;11.70;;;3.70;;
33074;SDS011;19433;51.292;6.868;2022-11-25T05:00:28;14.17;;;3.57;;
33074;SDS011;19433;51.292;6.868;2022-11-25T05:02:54;4.60;;;3.00;;
33074;SDS011;19433;51.292;6.868;2022-11-25T05:05:19;6.63;;;3.70;;
33074;SDS011;19433;51.292;6.868;2022-11-25T05:07:44;8.97;;;3.13;;
33074;SDS011;19433;51.292;6.868;2022-11-25T05:10:10;7.93;;;5.40;;
33074;SDS011;19433;51.292;6.868;2022-11-25T05:12:37;12.20;;;3.90;;
33074;SDS011;19433;51.292;6.868;2022-11-25T05:15:03;14.40;;;5.03;;
33074;SDS011;19433;51.292;6.868;2022-11-25T05:17:30;11.80;;;3.43;;
33074;SDS011;19433;51.292;6.868;2022-11-25T05:19:56;11.80;;;4.70;;
33074;SDS011;19433;51.292;6.868;2022-11-25T05:22:26;10.83;;;4.00;;
33074;SDS011;19433;51.292;6.868;2022-11-25T05:24:53;17.80;;;4.50;;
33074;SDS011;19433;51.292;6.868;2022-11-25T05:27:37;13.17;;;4.23;;
33074;SDS011;19433;51.292;6.868;2022-11-25T05:30:03;10.63;;;4.70;;
33074;SDS011;19433;51.292;6.868;2022-11-25T05:32:28;11.40;;;3.77;;
33074;SDS011;19433;51.292;6.868;2022-11-25T05:34:54;9.73;;;3.40;;
33074;SDS011;19433;51.292;6.868;2022-11-25T05:37:19;5.67;;;4.00;;
33074;SDS011;19433;51.292;6.868;2022-11-25T05:39:44;10.83;;;5.07;;
33074;SDS011;19433;51.292;6.868;2022-11-25T05:42:11;11.63;;;3.70;;
33074;SDS011;19433;51.292;6.868;2022-11-25T05:44:36;11.43;;;4.07;;
33074;SDS011;19433;51.292;6.868;2022-11-25T05:47:01;11.93;;;3.70;;
33074;SDS011;19433;51.292;6.868;2022-11-25T05:49:32;12.37;;;4.67;;
33074;SDS011;19433;51.292;6.868;2022-11-25T05:51:57;5.40;;;3.70;;
33074;SDS011;19433;51.292;6.868;2022-11-25T05:54:25;15.80;;;4.33;;
33074;SDS011;19433;51.292;6.868;2022-11-25T05:56:50;9.67;;;5.20;;
33074;SDS011;19433;51.292;6.868;2022-11-25T05:59:15;8.47;;;4.30;;
33074;SDS011;19433;51.292;6.868;2022-11-25T06:01:40;12.40;;;3.90;;
33074;SDS011;19433;51.292;6.868;2022-11-25T06:04:06;9.20;;;4.93;;
33074;SDS011;19433;51.292;6.868;2022-11-25T06:06:31;18.73;;;4.87;;
33074;SDS011;19433;51.292;6.868;2022-11-25T06:09:12;9.07;;;4.47;;
33074;SDS011;19433;51.292;6.868;2022-11-25T06:11:38;10.90;;;5.00;;
33074;SDS011;19433;51.292;6.868;2022-11-25T06:14:03;11.47;;;4.63;;
33074;SDS011;19433;51.292;6.868;2022-11-25T06:16:28;12.57;;;4.50;;
33074;SDS011;19433;51.292;6.868;2022-11-25T06:18:53;9.10;;;4.90;;
33074;SDS011;19433;51.292;6.868;2022-11-25T06:21:19;11.63;;;5.50;;
33074;SDS011;19433;51.292;6.868;2022-11-25T06:23:44;9.90;;;4.63;;
33074;SDS011;19433;51.292;6.868;2022-11-25T06:26:19;13.17;;;4.10;;
33074;SDS011;19433;51.292;6.868;2022-11-25T06:28:46;10.83;;;5.03;;
33074;SDS011;19433;51.292;6.868;2022-11-25T06:31:13;12.60;;;5.80;;
33074;SDS011;19433;51.292;6.868;2022-11-25T06:33:40;11.47;;;4.93;;
33074;SDS011;19433;51.292;6.868;2022-11-25T06:36:07;11.13;;;4.67;;
33074;SDS011;19433;51.292;6.868;2022-11-25T06:38:37;16.40;;;5.33;;
33074;SDS011;19433;51.292;6.868;2022-11-25T06:41:03;11.77;;;5.90;;
33074;SDS011;19433;51.292;6.868;2022-11-25T06:43:29;10.80;;;5.90;;
33074;SDS011;19433;51.292;6.868;2022-11-25T06:46:00;15.47;;;4.17;;
33074;SDS011;19433;51.292;6.868;2022-11-25T06:48:27;14.77;;;5.10;;
33074;SDS011;19433;51.292;6.868;2022-11-25T06:50:56;15.77;;;5.00;;
33074;SDS011;19433;51.292;6.868;2022-11-25T06:53:23;10.57;;;5.13;;
33074;SDS011;19433;51.292;6.868;2022-11-25T06:55:48;7.67;;;5.17;;
33074;SDS011;19433;51.292;6.868;2022-11-25T06:58:13;11.43;;;4.83;;
33074;SDS011;19433;51.292;6.868;2022-11-25T07:00:39;11.53;;;4.80;;
33074;SDS011;19433;51.292;6.868;2022-11-25T07:03:04;9.97;;;4.57;;
33074;SDS011;19433;51.292;6.868;2022-11-25T07:05:29;10.67;;;5.00;;
33074;SDS011;19433;51.292;6.868;2022-11-25T07:07:55;9.07;;;4.50;;
33074;SDS011;19433;51.292;6.868;2022-11-25T07:10:20;12.33;;;5.10;;
33074;SDS011;19433;51.292;6.868;2022-11-25T07:12:46;8.60;;;5.50;;
33074;SDS011;19433;51.292;6.868;2022-11-25T07:15:11;9.63;;;4.80;;
33074;SDS011;19433;51.292;6.868;2022-11-25T07:17:36;11.77;;;5.20;;
33074;SDS011;19433;51.292;6.868;2022-11-25T07:20:01;9.07;;;4.37;;
33074;SDS011;19433;51.292;6.868;2022-11-25T07:22:27;12.30;;;4.60;;
33074;SDS011;19433;51.292;6.868;2022-11-25T07:24:52;17.13;;;5.93;;
33074;SDS011;19433;51.292;6.868;2022-11-25T07:27:17;19.20;;;4.83;;
33074;SDS011;19433;51.292;6.868;2022-11-25T07:29:43;8.93;;;5.20;;
33074;SDS011;19433;51.292;6.868;2022-11-25T07:32:08;11.40;;;4.73;;
33074;SDS011;19433;51.292;6.868;2022-11-25T07:34:33;8.97;;;4.77;;
33074;SDS011;19433;51.292;6.868;2022-11-25T07:36:58;11.10;;;5.63;;
33074;SDS011;19433;51.292;6.868;2022-11-25T07:39:24;9.80;;;4.77;;
33074;SDS011;19433;51.292;6.868;2022-11-25T07:41:49;9.63;;;4.03;;
33074;SDS011;19433;51.292;6.868;2022-11-25T07:44:16;7.27;;;4.60;;
33074;SDS011;19433;51.292;6.868;2022-11-25T07:46:42;15.80;;;5.70;;
33074;SDS011;19433;51.292;6.868;2022-11-25T07:49:10;11.03;;;5.03;;
33074;SDS011;19433;51.292;6.868;2022-11-25T07:51:38;12.97;;;6.00;;
33074;SDS011;19433;51.292;6.868;2022-11-25T07:54:11;10.00;;;4.90;;
33074;SDS011;19433;51.292;6.868;2022-11-25T07:56:39;14.00;;;5.50;;
33074;SDS011;19433;51.292;6.868;2022-11-25T07:59:07;10.70;;;5.30;;
33074;SDS011;19433;51.292;6.868;2022-11-25T08:01:35;11.13;;;5.00;;
33074;SDS011;19433;51.292;6.868;2022-11-25T08:04:01;10.83;;;5.20;;
33074;SDS011;19433;51.292;6.868;2022-11-25T08:06:27;9.33;;;5.33;;
33074;SDS011;19433;51.292;6.868;2022-11-25T08:08:54;11.47;;;4.50;;
33074;SDS011;19433;51.292;6.868;2022-11-25T08:11:22;11.87;;;5.90;;
33074;SDS011;19433;51.292;6.868;2022-11-25T08:13:52;12.60;;;5.80;;
33074;SDS011;19433;51.292;6.868;2022-11-25T08:16:18;10.53;;;5.10;;
33074;SDS011;19433;51.292;6.868;2022-11-25T08:18:46;7.50;;;4.43;;
33074;SDS011;19433;51.292;6.868;2022-11-25T08:21:12;10.17;;;4.50;;
33074;SDS011;19433;51.292;6.868;2022-11-25T08:23:39;6.30;;;4.07;;
33074;SDS011;19433;51.292;6.868;2022-11-25T08:26:11;10.80;;;4.27;;
33074;SDS011;19433;51.292;6.868;2022-11-25T08:28:38;18.23;;;5.97;;
33074;SDS011;19433;51.292;6.868;2022-11-25T08:31:09;9.93;;;4.87;;
33074;SDS011;19433;51.292;6.868;2022-11-25T08:33:36;5.77;;;4.67;;
33074;SDS011;19433;51.292;6.868;2022-11-25T08:36:02;7.17;;;4.67;;
33074;SDS011;19433;51.292;6.868;2022-11-25T08:38:28;9.63;;;5.10;;
33074;SDS011;19433;51.292;6.868;2022-11-25T08:40:54;8.90;;;5.00;;
33074;SDS011;19433;51.292;6.868;2022-11-25T08:43:19;10.07;;;4.23;;
33074;SDS011;19433;51.292;6.868;2022-11-25T08:45:46;8.63;;;5.50;;
33074;SDS011;19433;51.292;6.868;2022-11-25T08:48:13;8.10;;;4.77;;
33074;SDS011;19433;51.292;6.868;2022-11-25T08:50:39;7.03;;;4.93;;
33074;SDS011;19433;51.292;6.868;2022-11-25T08:53:09;6.10;;;4.00;;
33074;SDS011;19433;51.292;6.868;2022-11-25T08:55:34;11.53;;;5.50;;
33074;SDS011;19433;51.292;6.868;2022-11-25T08:58:01;11.33;;;5.40;;
33074;SDS011;19433;51.292;6.868;2022-11-25T09:00:26;10.90;;;4.10;;
33074;SDS011;19433;51.292;6.868;2022-11-25T09:02:51;8.63;;;4.40;;
33074;SDS011;19433;51.292;6.868;2022-11-25T09:05:17;10.83;;;5.63;;
33074;SDS011;19433;51.292;6.868;2022-11-25T09:07:42;8.40;;;4.40;;
33074;SDS011;19433;51.292;6.868;2022-11-25T09:10:09;7.77;;;4.03;;
33074;SDS011;19433;51.292;6.868;2022-11-25T09:12:39;8.37;;;3.93;;
33074;SDS011;19433;51.292;6.868;2022-11-25T09:15:04;6.73;;;4.40;;
33074;SDS011;19433;51.292;6.868;2022-11-25T09:17:30;11.57;;;4.77;;
33074;SDS011;19433;51.292;6.868;2022-11-25T09:19:55;10.37;;;4.20;;
33074;SDS011;19433;51.292;6.868;2022-11-25T09:22:21;8.93;;;4.50;;
33074;SDS011;19433;51.292;6.868;2022-11-25T09:24:46;8.67;;;4.20;;
33074;SDS011;19433;51.292;6.868;2022-11-25T09:27:11;6.60;;;4.97;;
33074;SDS011;19433;51.292;6.868;2022-11-25T09:29:36;7.30;;;3.80;;
33074;SDS011;19433;51.292;6.868;2022-11-25T09:32:02;9.33;;;4.97;;
33074;SDS011;19433;51.292;6.868;2022-11-25T09:34:27;9.50;;;5.20;;
33074;SDS011;19433;51.292;6.868;2022-11-25T09:36:53;11.47;;;4.37;;
33074;SDS011;19433;51.292;6.868;2022-11-25T09:39:18;8.03;;;4.00;;
33074;SDS011;19433;51.292;6.868;2022-11-25T09:50:16;6.13;;;3.20;;
33074;SDS011;19433;51.292;6.868;2022-11-25T09:52:55;7.63;;;3.93;;
33074;SDS011;19433;51.292;6.868;2022-11-25T09:55:42;5.70;;;3.40;;
33074;SDS011;19433;51.292;6.868;2022-11-25T09:58:29;6.73;;;3.50;;
33074;SDS011;19433;51.292;6.868;2022-11-25T10:00:59;9.17;;;3.00;;
33074;SDS011;19433;51.292;6.868;2022-11-25T10:06:04;7.20;;;3.90;;
33074;SDS011;19433;51.292;6.868;2022-11-25T10:08:41;6.50;;;3.77;;
33074;SDS011;19433;51.292;6.868;2022-11-25T10:19:28;6.00;;;3.73;;
33074;SDS011;19433;51.292;6.868;2022-11-25T10:24:50;7.37;;;3.30;;
33074;SDS011;19433;51.292;6.868;2022-11-25T10:27:20;11.20;;;4.00;;
33074;SDS011;19433;51.292;6.868;2022-11-25T10:29:53;7.73;;;4.07;;
33074;SDS011;19433;51.292;6.868;2022-11-25T10:32:25;7.33;;;3.80;;
33074;SDS011;19433;51.292;6.868;2022-11-25T10:34:57;8.90;;;3.90;;
33074;SDS011;19433;51.292;6.868;2022-11-25T10:37:30;4.17;;;3.20;;
33074;SDS011;19433;51.292;6.868;2022-11-25T10:40:01;9.00;;;4.40;;
33074;SDS011;19433;51.292;6.868;2022-11-25T10:42:26;6.33;;;3.83;;
33074;SDS011;19433;51.292;6.868;2022-11-25T10:44:52;7.00;;;3.20;;
33074;SDS011;19433;51.292;6.868;2022-11-25T10:50:20;11.17;;;3.60;;
33074;SDS011;19433;51.292;6.868;2022-11-25T10:53:01;8.67;;;3.40;;
33074;SDS011;19433;51.292;6.868;2022-11-25T10:55:33;6.93;;;3.13;;
33074;SDS011;19433;51.292;6.868;2022-11-25T10:57:59;5.33;;;3.40;;
33074;SDS011;19433;51.292;6.868;2022-11-25T11:00:50;11.00;;;4.30;;
33074;SDS011;19433;51.292;6.868;2022-11-25T11:03:26;6.57;;;2.83;;
33074;SDS011;19433;51.292;6.868;2022-11-25T11:05:52;5.33;;;2.93;;
33074;SDS011;19433;51.292;6.868;2022-11-25T11:11:07;8.77;;;2.90;;
33074;SDS011;19433;51.292;6.868;2022-11-25T11:13:32;7.13;;;2.90;;
33074;SDS011;19433;51.292;6.868;2022-11-25T11:15:58;9.30;;;2.87;;
33074;SDS011;19433;51.292;6.868;2022-11-25T11:20:55;5.87;;;2.70;;
33074;SDS011;19433;51.292;6.868;2022-11-25T11:23:22;8.90;;;2.70;;
33074;SDS011;19433;51.292;6.868;2022-11-25T11:25:56;7.93;;;3.20;;
33074;SDS011;19433;51.292;6.868;2022-11-25T11:28:24;8.93;;;2.73;;
33074;SDS011;19433;51.292;6.868;2022-11-25T11:30:57;9.30;;;3.30;;
33074;SDS011;19433;51.292;6.868;2022-11-25T11:33:47;8.37;;;2.90;;
33074;SDS011;19433;51.292;6.868;2022-11-25T11:50:22;7.23;;;2.97;;
33074;SDS011;19433;51.292;6.868;2022-11-25T11:52:55;6.10;;;2.77;;
33074;SDS011;19433;51.292;6.868;2022-11-25T11:55:46;9.30;;;3.27;;
33074;SDS011;19433;51.292;6.868;2022-11-25T12:03:41;6.90;;;2.77;;
33074;SDS011;19433;51.292;6.868;2022-11-25T12:06:16;7.63;;;2.93;;
33074;SDS011;19433;51.292;6.868;2022-11-25T12:08:48;6.37;;;2.70;;
33074;SDS011;19433;51.292;6.868;2022-11-25T12:11:20;6.47;;;3.50;;
33074;SDS011;19433;51.292;6.868;2022-11-25T12:13:51;13.10;;;4.57;;
33074;SDS011;19433;51.292;6.868;2022-11-25T12:19:43;6.80;;;2.90;;
33074;SDS011;19433;51.292;6.868;2022-11-25T12:22:24;6.77;;;3.23;;
33074;SDS011;19433;51.292;6.868;2022-11-25T12:27:37;10.13;;;3.20;;
33074;SDS011;19433;51.292;6.868;2022-11-25T12:30:09;7.27;;;2.93;;
33074;SDS011;19433;51.292;6.868;2022-11-25T12:35:35;10.07;;;2.93;;
33074;SDS011;19433;51.292;6.868;2022-11-25T12:44:13;9.80;;;3.63;;
33074;SDS011;19433;51.292;6.868;2022-11-25T12:46:46;14.40;;;3.13;;
33074;SDS011;19433;51.292;6.868;2022-11-25T12:49:20;7.53;;;4.00;;
33074;SDS011;19433;51.292;6.868;2022-11-25T12:54:57;3.73;;;2.80;;
33074;SDS011;19433;51.292;6.868;2022-11-25T13:00:47;7.87;;;2.97;;
33074;SDS011;19433;51.292;6.868;2022-11-25T13:06:15;5.30;;;2.47;;
33074;SDS011;19433;51.292;6.868;2022-11-25T13:17:31;12.83;;;3.30;;
33074;SDS011;19433;51.292;6.868;2022-11-25T13:23:00;5.87;;;3.00;;
33074;SDS011;19433;51.292;6.868;2022-11-25T13:25:31;8.67;;;3.37;;
33074;SDS011;19433;51.292;6.868;2022-11-25T13:27:58;8.63;;;4.47;;
33074;SDS011;19433;51.292;6.868;2022-11-25T13:36:19;7.90;;;3.63;;
33074;SDS011;19433;51.292;6.868;2022-11-25T13:49:53;8.80;;;3.20;;
33074;SDS011;19433;51.292;6.868;2022-11-25T13:52:29;10.27;;;3.30;;
33074;SDS011;19433;51.292;6.868;2022-11-25T13:55:46;7.73;;;3.33;;
33074;SDS011;19433;51.292;6.868;2022-11-25T14:08:36;5.10;;;2.90;;
33074;SDS011;19433;51.292;6.868;2022-11-25T14:19:10;4.20;;;2.43;;
33074;SDS011;19433;51.292;6.868;2022-11-25T14:21:49;4.43;;;2.13;;
33074;SDS011;19433;51.292;6.868;2022-11-25T14:24:42;7.03;;;2.53;;
33074;SDS011;19433;51.292;6.868;2022-11-25T14:27:12;6.83;;;2.47;;
33074;SDS011;19433;51.292;6.868;2022-11-25T14:29:44;7.00;;;2.43;;
33074;SDS011;19433;51.292;6.868;2022-11-25T14:32:17;6.13;;;2.60;;
33074;SDS011;19433;51.292;6.868;2022-11-25T14:34:48;6.40;;;2.87;;
33074;SDS011;19433;51.292;6.868;2022-11-25T14:40:18;5.87;;;2.50;;
33074;SDS011;19433;51.292;6.868;2022-11-25T14:42:49;3.47;;;2.23;;
33074;SDS011;19433;51.292;6.868;2022-11-25T14:45:29;8.70;;;2.90;;
33074;SDS011;19433;51.292;6.868;2022-11-25T14:47:57;7.73;;;2.80;;
33074;SDS011;19433;51.292;6.868;2022-11-25T14:50:36;6.40;;;2.50;;
33074;SDS011;19433;51.292;6.868;2022-11-25T14:53:07;3.70;;;1.90;;
33074;SDS011;19433;51.292;6.868;2022-11-25T14:55:34;7.30;;;2.43;;
33074;SDS011;19433;51.292;6.868;2022-11-25T14:57:59;4.83;;;2.00;;
33074;SDS011;19433;51.292;6.868;2022-11-25T15:00:25;6.90;;;3.27;;
33074;SDS011;19433;51.292;6.868;2022-11-25T15:03:00;5.57;;;2.77;;
33074;SDS011;19433;51.292;6.868;2022-11-25T15:05:35;7.27;;;2.93;;
33074;SDS011;19433;51.292;6.868;2022-11-25T15:13:09;8.93;;;3.17;;
33074;SDS011;19433;51.292;6.868;2022-11-25T15:15:37;7.33;;;2.90;;
33074;SDS011;19433;51.292;6.868;2022-11-25T15:18:03;9.30;;;3.40;;
33074;SDS011;19433;51.292;6.868;2022-11-25T15:20:30;10.77;;;2.97;;
33074;SDS011;19433;51.292;6.868;2022-11-25T15:22:58;5.33;;;2.87;;
33074;SDS011;19433;51.292;6.868;2022-11-25T15:25:24;6.00;;;3.00;;
33074;SDS011;19433;51.292;6.868;2022-11-25T15:27:50;8.80;;;2.77;;
33074;SDS011;19433;51.292;6.868;2022-11-25T15:30:20;6.27;;;2.27;;
33074;SDS011;19433;51.292;6.868;2022-11-25T15:32:46;9.70;;;2.53;;
33074;SDS011;19433;51.292;6.868;2022-11-25T15:35:15;6.90;;;2.90;;
33074;SDS011;19433;51.292;6.868;2022-11-25T15:37:42;2.57;;;1.83;;
33074;SDS011;19433;51.292;6.868;2022-11-25T15:42:56;6.33;;;2.37;;
33074;SDS011;19433;51.292;6.868;2022-11-25T15:45:23;6.30;;;2.37;;
33074;SDS011;19433;51.292;6.868;2022-11-25T15:47:49;6.13;;;2.40;;
33074;SDS011;19433;51.292;6.868;2022-11-25T15:52:45;7.70;;;3.00;;
33074;SDS011;19433;51.292;6.868;2022-11-25T15:58:40;6.00;;;3.10;;
33074;SDS011;19433;51.292;6.868;2022-11-25T16:03:41;8.17;;;2.90;;
33074;SDS011;19433;51.292;6.868;2022-11-25T16:12:13;6.33;;;2.60;;
33074;SDS011;19433;51.292;6.868;2022-11-25T16:14:41;9.10;;;3.40;;
33074;SDS011;19433;51.292;6.868;2022-11-25T16:17:09;8.20;;;2.80;;
33074;SDS011;19433;51.292;6.868;2022-11-25T16:19:40;6.70;;;3.00;;
33074;SDS011;19433;51.292;6.868;2022-11-25T16:22:09;7.60;;;2.80;;
33074;SDS011;19433;51.292;6.868;2022-11-25T16:24:46;6.90;;;2.83;;
33074;SDS011;19433;51.292;6.868;2022-11-25T16:29:47;7.50;;;3.23;;
33074;SDS011;19433;51.292;6.868;2022-11-25T16:32:21;7.53;;;3.10;;
33074;SDS011;19433;51.292;6.868;2022-11-25T16:37:46;7.07;;;3.40;;
33074;SDS011;19433;51.292;6.868;2022-11-25T16:40:12;6.73;;;3.63;;
33074;SDS011;19433;51.292;6.868;2022-11-25T16:42:39;8.00;;;3.37;;
33074;SDS011;19433;51.292;6.868;2022-11-25T16:45:11;6.17;;;2.57;;
33074;SDS011;19433;51.292;6.868;2022-11-25T16:47:43;9.23;;;3.17;;
33074;SDS011;19433;51.292;6.868;2022-11-25T16:50:12;11.60;;;4.07;;
33074;SDS011;19433;51.292;6.868;2022-11-25T16:52:38;8.37;;;2.70;;
33074;SDS011;19433;51.292;6.868;2022-11-25T16:55:03;6.30;;;3.17;;
33074;SDS011;19433;51.292;6.868;2022-11-25T16:57:29;4.60;;;2.97;;
33074;SDS011;19433;51.292;6.868;2022-11-25T16:59:55;6.13;;;3.13;;
33074;SDS011;19433;51.292;6.868;2022-11-25T17:02:22;5.03;;;3.00;;
33074;SDS011;19433;51.292;6.868;2022-11-25T17:04:47;5.67;;;2.90;;
33074;SDS011;19433;51.292;6.868;2022-11-25T17:10:35;10.87;;;3.70;;
33074;SDS011;19433;51.292;6.868;2022-11-25T17:13:00;10.03;;;3.57;;
33074;SDS011;19433;51.292;6.868;2022-11-25T17:15:35;11.50;;;4.00;;
33074;SDS011;19433;51.292;6.868;2022-11-25T17:18:03;8.53;;;3.83;;
33074;SDS011;19433;51.292;6.868;2022-11-25T17:20:30;9.43;;;4.23;;
33074;SDS011;19433;51.292;6.868;2022-11-25T17:22:56;10.13;;;4.03;;
33074;SDS011;19433;51.292;6.868;2022-11-25T17:25:23;10.50;;;4.00;;
33074;SDS011;19433;51.292;6.868;2022-11-25T17:27:51;18.20;;;4.67;;
33074;SDS011;19433;51.292;6.868;2022-11-25T17:30:26;7.23;;;3.60;;
33074;SDS011;19433;51.292;6.868;2022-11-25T17:36:32;9.63;;;3.27;;
33074;SDS011;19433;51.292;6.868;2022-11-25T17:42:25;8.50;;;3.90;;
33074;SDS011;19433;51.292;6.868;2022-11-25T17:48:32;10.20;;;5.17;;
33074;SDS011;19433;51.292;6.868;2022-11-25T17:54:19;4.70;;;4.00;;
33074;SDS011;19433;51.292;6.868;2022-11-25T17:59:32;7.27;;;3.80;;
33074;SDS011;19433;51.292;6.868;2022-11-25T18:01:59;10.90;;;4.13;;
33074;SDS011;19433;51.292;6.868;2022-11-25T18:04:33;10.80;;;3.90;;
33074;SDS011;19433;51.292;6.868;2022-11-25T18:10:24;10.80;;;4.50;;
33074;SDS011;19433;51.292;6.868;2022-11-25T18:29:13;12.57;;;5.00;;
33074;SDS011;19433;51.292;6.868;2022-11-25T18:31:41;7.23;;;3.77;;
33074;SDS011;19433;51.292;6.868;2022-11-25T18:34:13;8.80;;;3.70;;
33074;SDS011;19433;51.292;6.868;2022-11-25T18:36:39;5.97;;;2.70;;
33074;SDS011;19433;51.292;6.868;2022-11-25T18:39:05;2.73;;;1.70;;
33074;SDS011;19433;51.292;6.868;2022-11-25T18:41:30;6.10;;;2.70;;
33074;SDS011;19433;51.292;6.868;2022-11-25T18:47:17;4.83;;;2.83;;
33074;SDS011;19433;51.292;6.868;2022-11-25T18:49:42;3.47;;;2.80;;
33074;SDS011;19433;51.292;6.868;2022-11-25T18:52:09;5.93;;;2.40;;
33074;SDS011;19433;51.292;6.868;2022-11-25T18:54:35;3.73;;;2.70;;
33074;SDS011;19433;51.292;6.868;2022-11-25T18:57:00;8.50;;;6.40;;
33074;SDS011;19433;51.292;6.868;2022-11-25T18:59:30;7.53;;;5.13;;
33074;SDS011;19433;51.292;6.868;2022-11-25T19:01:58;6.77;;;3.80;;
33074;SDS011;19433;51.292;6.868;2022-11-25T19:04:23;11.13;;;4.30;;
33074;SDS011;19433;51.292;6.868;2022-11-25T19:06:48;7.27;;;4.40;;
33074;SDS011;19433;51.292;6.868;2022-11-25T19:09:14;4.33;;;3.80;;
33074;SDS011;19433;51.292;6.868;2022-11-25T19:11:44;6.33;;;3.97;;
33074;SDS011;19433;51.292;6.868;2022-11-25T19:14:14;7.90;;;5.10;;
33074;SDS011;19433;51.292;6.868;2022-11-25T19:16:55;14.33;;;5.63;;
33074;SDS011;19433;51.292;6.868;2022-11-25T19:19:25;10.43;;;4.80;;
33074;SDS011;19433;51.292;6.868;2022-11-25T19:21:50;12.33;;;5.47;;
33074;SDS011;19433;51.292;6.868;2022-11-25T19:24:15;11.40;;;5.90;;
33074;SDS011;19433;51.292;6.868;2022-11-25T19:26:42;14.33;;;5.70;;
33074;SDS011;19433;51.292;6.868;2022-11-25T19:29:17;12.20;;;6.87;;
33074;SDS011;19433;51.292;6.868;2022-11-25T19:31:47;9.37;;;7.50;;
33074;SDS011;19433;51.292;6.868;2022-11-25T19:34:48;10.30;;;7.10;;
33074;SDS011;19433;51.292;6.868;2022-11-25T19:39:44;12.67;;;5.77;;
33074;SDS011;19433;51.292;6.868;2022-11-25T19:42:11;16.10;;;6.30;;
33074;SDS011;19433;51.292;6.868;2022-11-25T19:44:38;13.50;;;7.40;;
33074;SDS011;19433;51.292;6.868;2022-11-25T19:47:04;16.87;;;6.73;;
33074;SDS011;19433;51.292;6.868;2022-11-25T19:49:29;18.33;;;7.00;;
33074;SDS011;19433;51.292;6.868;2022-11-25T19:55:19;19.67;;;7.83;;
33074;SDS011;19433;51.292;6.868;2022-11-25T19:57:47;18.13;;;7.40;;
33074;SDS011;19433;51.292;6.868;2022-11-25T20:03:35;20.47;;;9.73;;
33074;SDS011;19433;51.292;6.868;2022-11-25T20:09:33;18.47;;;7.90;;
33074;SDS011;19433;51.292;6.868;2022-11-25T20:15:30;16.00;;;9.17;;
33074;SDS011;19433;51.292;6.868;2022-11-25T20:23:50;20.53;;;9.50;;
33074;SDS011;19433;51.292;6.868;2022-11-25T20:26:32;19.83;;;10.60;;
33074;SDS011;19433;51.292;6.868;2022-11-25T20:32:32;20.53;;;10.77;;
33074;SDS011;19433;51.292;6.868;2022-11-25T20:35:05;23.40;;;10.00;;
33074;SDS011;19433;51.292;6.868;2022-11-25T20:40:53;18.00;;;8.70;;
33074;SDS011;19433;51.292;6.868;2022-11-25T20:46:38;23.73;;;9.23;;
33074;SDS011;19433;51.292;6.868;2022-11-25T20:49:08;18.50;;;8.53;;
33074;SDS011;19433;51.292;6.868;2022-11-25T20:51:44;20.60;;;9.70;;
33074;SDS011;19433;51.292;6.868;2022-11-25T20:54:09;17.80;;;8.80;;
33074;SDS011;19433;51.292;6.868;2022-11-25T20:56:35;19.93;;;8.33;;
33074;SDS011;19433;51.292;6.868;2022-11-25T20:59:01;16.83;;;7.70;;
33074;SDS011;19433;51.292;6.868;2022-11-25T21:01:26;25.57;;;9.20;;
33074;SDS011;19433;51.292;6.868;2022-11-25T21:03:51;23.23;;;8.47;;
33074;SDS011;19433;51.292;6.868;2022-11-25T21:09:40;17.77;;;8.27;;
33074;SDS011;19433;51.292;6.868;2022-11-25T21:15:17;21.67;;;9.10;;
33074;SDS011;19433;51.292;6.868;2022-11-25T21:17:45;21.30;;;8.37;;
33074;SDS011;19433;51.292;6.868;2022-11-25T21:20:10;17.60;;;7.70;;
33074;SDS011;19433;51.292;6.868;2022-11-25T21:22:37;18.27;;;8.77;;
33074;SDS011;19433;51.292;6.868;2022-11-25T21:25:04;16.67;;;7.70;;
33074;SDS011;19433;51.292;6.868;2022-11-25T21:27:30;19.20;;;9.93;;
33074;SDS011;19433;51.292;6.868;2022-11-25T21:29:56;23.53;;;9.07;;
33074;SDS011;19433;51.292;6.868;2022-11-25T21:32:23;9.57;;;7.77;;
33074;SDS011;19433;51.292;6.868;2022-11-25T21:34:50;20.40;;;8.50;;
33074;SDS011;19433;51.292;6.868;2022-11-25T21:40:36;15.97;;;8.87;;
33074;SDS011;19433;51.292;6.868;2022-11-25T21:43:04;22.43;;;8.90;;
33074;SDS011;19433;51.292;6.868;2022-11-25T21:45:36;27.00;;;10.07;;
33074;SDS011;19433;51.292;6.868;2022-11-25T21:48:02;18.80;;;9.70;;
33074;SDS011;19433;51.292;6.868;2022-11-25T21:50:27;24.70;;;10.63;;
33074;SDS011;19433;51.292;6.868;2022-11-25T21:52:53;13.93;;;9.80;;
33074;SDS011;19433;51.292;6.868;2022-11-25T21:55:19;18.40;;;8.83;;
33074;SDS011;19433;51.292;6.868;2022-11-25T22:01:07;22.20;;;8.47;;
33074;SDS011;19433;51.292;6.868;2022-11-25T22:03:34;18.37;;;8.87;;
33074;SDS011;19433;51.292;6.868;2022-11-25T22:05:59;13.60;;;8.63;;
33074;SDS011;19433;51.292;6.868;2022-11-25T22:08:27;19.10;;;9.10;;
33074;SDS011;19433;51.292;6.868;2022-11-25T22:14:21;18.90;;;8.87;;
33074;SDS011;19433;51.292;6.868;2022-11-25T22:25:29;20.93;;;8.57;;
33074;SDS011;19433;51.292;6.868;2022-11-25T22:37:15;21.80;;;9.30;;
33074;SDS011;19433;51.292;6.868;2022-11-25T22:39:42;33.17;;;10.37;;
33074;SDS011;19433;51.292;6.868;2022-11-25T22:42:08;21.20;;;8.67;;
33074;SDS011;19433;51.292;6.868;2022-11-25T22:45:26;20.13;;;8.83;;
33074;SDS011;19433;51.292;6.868;2022-11-25T22:47:54;18.87;;;9.00;;
33074;SDS011;19433;51.292;6.868;2022-11-25T22:50:22;21.03;;;9.93;;
33074;SDS011;19433;51.292;6.868;2022-11-25T22:52:52;22.97;;;8.97;;